sensor_id;sensor_type;location;lat;lon;timestamp;P1;durP1;ratioP1;P2;durP2;ratioP2
3337;SDS011;1682;49.286;10.788;2023-06-26T00:01:32;6.10;;;5.47;;
3337;SDS011;1682;49.286;10.788;2023-06-26T00:03:59;7.77;;;6.57;;
3337;SDS011;1682;49.286;10.788;2023-06-26T00:06:27;6.80;;;6.20;;
3337;SDS011;1682;49.286;10.788;2023-06-26T00:08:56;7.73;;;6.20;;
3337;SDS011;1682;49.286;10.788;2023-06-26T00:11:24;6.40;;;5.77;;
3337;SDS011;1682;49.286;10.788;2023-06-26T00:13:52;11.23;;;9.47;;
3337;SDS011;1682;49.286;10.788;2023-06-26T00:16:19;8.00;;;7.20;;
3337;SDS011;1682;49.286;10.788;2023-06-26T00:18:47;8.27;;;7.47;;
3337;SDS011;1682;49.286;10.788;2023-06-26T00:21:14;7.47;;;6.77;;
3337;SDS011;1682;49.286;10.788;2023-06-26T00:23:41;10.40;;;6.30;;
3337;SDS011;1682;49.286;10.788;2023-06-26T00:26:10;8.17;;;7.33;;
3337;SDS011;1682;49.286;10.788;2023-06-26T00:28:37;7.03;;;6.33;;
3337;SDS011;1682;49.286;10.788;2023-06-26T00:31:05;5.87;;;5.37;;
3337;SDS011;1682;49.286;10.788;2023-06-26T00:33:32;7.47;;;6.77;;
3337;SDS011;1682;49.286;10.788;2023-06-26T00:35:59;7.70;;;6.77;;
3337;SDS011;1682;49.286;10.788;2023-06-26T00:38:26;6.77;;;6.10;;
3337;SDS011;1682;49.286;10.788;2023-06-26T00:40:54;7.80;;;7.00;;
3337;SDS011;1682;49.286;10.788;2023-06-26T00:43:22;8.30;;;7.43;;
3337;SDS011;1682;49.286;10.788;2023-06-26T00:45:50;6.57;;;5.97;;
3337;SDS011;1682;49.286;10.788;2023-06-26T00:48:17;8.10;;;6.47;;
3337;SDS011;1682;49.286;10.788;2023-06-26T00:50:44;6.43;;;5.77;;
3337;SDS011;1682;49.286;10.788;2023-06-26T00:53:12;7.33;;;6.73;;
3337;SDS011;1682;49.286;10.788;2023-06-26T00:55:39;7.37;;;6.67;;
3337;SDS011;1682;49.286;10.788;2023-06-26T00:58:06;8.10;;;7.27;;
3337;SDS011;1682;49.286;10.788;2023-06-26T01:00:35;7.97;;;7.00;;
3337;SDS011;1682;49.286;10.788;2023-06-26T01:03:02;8.53;;;7.60;;
3337;SDS011;1682;49.286;10.788;2023-06-26T01:05:29;7.20;;;6.60;;
3337;SDS011;1682;49.286;10.788;2023-06-26T01:07:57;7.95;;;7.20;;
3337;SDS011;1682;49.286;10.788;2023-06-26T01:10:25;7.00;;;6.40;;
3337;SDS011;1682;49.286;10.788;2023-06-26T01:12:54;9.77;;;7.50;;
3337;SDS011;1682;49.286;10.788;2023-06-26T01:15:21;7.60;;;6.80;;
3337;SDS011;1682;49.286;10.788;2023-06-26T01:17:50;7.40;;;6.70;;
3337;SDS011;1682;49.286;10.788;2023-06-26T01:20:17;7.80;;;7.00;;
3337;SDS011;1682;49.286;10.788;2023-06-26T01:22:47;7.10;;;6.40;;
3337;SDS011;1682;49.286;10.788;2023-06-26T01:25:18;7.80;;;7.00;;
3337;SDS011;1682;49.286;10.788;2023-06-26T01:27:50;7.00;;;6.27;;
3337;SDS011;1682;49.286;10.788;2023-06-26T01:30:17;7.27;;;6.43;;
3337;SDS011;1682;49.286;10.788;2023-06-26T01:32:45;7.23;;;6.63;;
3337;SDS011;1682;49.286;10.788;2023-06-26T01:35:12;8.30;;;7.50;;
3337;SDS011;1682;49.286;10.788;2023-06-26T01:37:40;7.70;;;6.97;;
3337;SDS011;1682;49.286;10.788;2023-06-26T01:40:07;7.73;;;6.93;;
3337;SDS011;1682;49.286;10.788;2023-06-26T01:42:35;7.53;;;6.43;;
3337;SDS011;1682;49.286;10.788;2023-06-26T01:45:05;7.43;;;6.07;;
3337;SDS011;1682;49.286;10.788;2023-06-26T01:47:34;6.90;;;6.30;;
3337;SDS011;1682;49.286;10.788;2023-06-26T01:50:05;7.63;;;6.63;;
3337;SDS011;1682;49.286;10.788;2023-06-26T01:52:35;7.80;;;6.63;;
3337;SDS011;1682;49.286;10.788;2023-06-26T01:55:05;7.43;;;6.63;;
3337;SDS011;1682;49.286;10.788;2023-06-26T01:57:33;6.63;;;5.93;;
3337;SDS011;1682;49.286;10.788;2023-06-26T02:00:01;7.13;;;6.43;;
3337;SDS011;1682;49.286;10.788;2023-06-26T02:02:32;7.03;;;6.30;;
3337;SDS011;1682;49.286;10.788;2023-06-26T02:05:01;7.17;;;6.53;;
3337;SDS011;1682;49.286;10.788;2023-06-26T02:07:28;8.07;;;7.23;;
3337;SDS011;1682;49.286;10.788;2023-06-26T02:09:55;7.47;;;6.67;;
3337;SDS011;1682;49.286;10.788;2023-06-26T02:12:23;8.37;;;7.33;;
3337;SDS011;1682;49.286;10.788;2023-06-26T02:14:50;7.30;;;6.63;;
3337;SDS011;1682;49.286;10.788;2023-06-26T02:17:17;7.97;;;7.23;;
3337;SDS011;1682;49.286;10.788;2023-06-26T02:19:46;8.07;;;6.77;;
3337;SDS011;1682;49.286;10.788;2023-06-26T02:22:13;7.87;;;6.20;;
3337;SDS011;1682;49.286;10.788;2023-06-26T02:24:40;7.27;;;6.53;;
3337;SDS011;1682;49.286;10.788;2023-06-26T02:27:08;6.63;;;5.97;;
3337;SDS011;1682;49.286;10.788;2023-06-26T02:29:35;7.50;;;6.80;;
3337;SDS011;1682;49.286;10.788;2023-06-26T02:32:02;7.77;;;6.13;;
3337;SDS011;1682;49.286;10.788;2023-06-26T02:34:30;7.53;;;6.77;;
3337;SDS011;1682;49.286;10.788;2023-06-26T02:36:58;8.07;;;7.30;;
3337;SDS011;1682;49.286;10.788;2023-06-26T02:39:25;6.63;;;6.00;;
3337;SDS011;1682;49.286;10.788;2023-06-26T02:41:53;7.27;;;6.57;;
3337;SDS011;1682;49.286;10.788;2023-06-26T02:44:20;6.00;;;5.40;;
3337;SDS011;1682;49.286;10.788;2023-06-26T02:46:47;7.40;;;6.70;;
3337;SDS011;1682;49.286;10.788;2023-06-26T02:49:14;7.33;;;6.60;;
3337;SDS011;1682;49.286;10.788;2023-06-26T02:51:41;9.35;;;6.45;;
3337;SDS011;1682;49.286;10.788;2023-06-26T02:54:10;8.43;;;7.63;;
3337;SDS011;1682;49.286;10.788;2023-06-26T02:56:37;10.20;;;8.13;;
3337;SDS011;1682;49.286;10.788;2023-06-26T02:59:04;8.63;;;7.73;;
3337;SDS011;1682;49.286;10.788;2023-06-26T03:01:31;6.70;;;6.10;;
3337;SDS011;1682;49.286;10.788;2023-06-26T03:03:59;7.95;;;7.20;;
3337;SDS011;1682;49.286;10.788;2023-06-26T03:06:26;7.20;;;6.47;;
3337;SDS011;1682;49.286;10.788;2023-06-26T03:08:54;8.53;;;7.00;;
3337;SDS011;1682;49.286;10.788;2023-06-26T03:11:22;7.90;;;7.20;;
3337;SDS011;1682;49.286;10.788;2023-06-26T03:13:50;20.43;;;12.70;;
3337;SDS011;1682;49.286;10.788;2023-06-26T03:16:17;15.47;;;10.50;;
3337;SDS011;1682;49.286;10.788;2023-06-26T03:18:44;9.37;;;6.90;;
3337;SDS011;1682;49.286;10.788;2023-06-26T03:21:11;8.27;;;7.10;;
3337;SDS011;1682;49.286;10.788;2023-06-26T03:26:06;8.20;;;7.40;;
3337;SDS011;1682;49.286;10.788;2023-06-26T03:28:34;16.20;;;10.20;;
3337;SDS011;1682;49.286;10.788;2023-06-26T03:31:01;9.77;;;8.40;;
3337;SDS011;1682;49.286;10.788;2023-06-26T03:33:29;9.20;;;7.27;;
3337;SDS011;1682;49.286;10.788;2023-06-26T03:35:56;7.07;;;6.47;;
3337;SDS011;1682;49.286;10.788;2023-06-26T03:38:24;9.00;;;7.47;;
3337;SDS011;1682;49.286;10.788;2023-06-26T03:40:52;7.50;;;6.80;;
3337;SDS011;1682;49.286;10.788;2023-06-26T03:43:19;7.47;;;6.83;;
3337;SDS011;1682;49.286;10.788;2023-06-26T03:45:47;8.57;;;7.67;;
3337;SDS011;1682;49.286;10.788;2023-06-26T03:48:15;7.93;;;7.13;;
3337;SDS011;1682;49.286;10.788;2023-06-26T03:50:42;7.57;;;6.87;;
3337;SDS011;1682;49.286;10.788;2023-06-26T03:53:09;9.33;;;8.30;;
3337;SDS011;1682;49.286;10.788;2023-06-26T03:55:37;13.67;;;10.83;;
3337;SDS011;1682;49.286;10.788;2023-06-26T03:58:04;10.13;;;8.43;;
3337;SDS011;1682;49.286;10.788;2023-06-26T04:00:31;8.57;;;7.57;;
3337;SDS011;1682;49.286;10.788;2023-06-26T04:03:00;8.40;;;7.60;;
3337;SDS011;1682;49.286;10.788;2023-06-26T04:05:28;7.33;;;6.67;;
3337;SDS011;1682;49.286;10.788;2023-06-26T04:07:55;11.57;;;8.50;;
3337;SDS011;1682;49.286;10.788;2023-06-26T04:10:22;8.27;;;7.47;;
3337;SDS011;1682;49.286;10.788;2023-06-26T04:12:49;9.90;;;7.77;;
3337;SDS011;1682;49.286;10.788;2023-06-26T04:15:16;7.63;;;6.87;;
3337;SDS011;1682;49.286;10.788;2023-06-26T04:17:44;8.63;;;7.83;;
3337;SDS011;1682;49.286;10.788;2023-06-26T04:20:12;8.70;;;7.60;;
3337;SDS011;1682;49.286;10.788;2023-06-26T04:22:40;7.80;;;6.83;;
3337;SDS011;1682;49.286;10.788;2023-06-26T04:25:07;7.07;;;6.47;;
3337;SDS011;1682;49.286;10.788;2023-06-26T04:27:37;7.43;;;6.30;;
3337;SDS011;1682;49.286;10.788;2023-06-26T04:30:04;7.80;;;6.93;;
3337;SDS011;1682;49.286;10.788;2023-06-26T04:32:31;7.53;;;6.87;;
3337;SDS011;1682;49.286;10.788;2023-06-26T04:34:59;9.27;;;7.10;;
3337;SDS011;1682;49.286;10.788;2023-06-26T04:37:27;7.60;;;6.90;;
3337;SDS011;1682;49.286;10.788;2023-06-26T04:39:54;9.03;;;7.60;;
3337;SDS011;1682;49.286;10.788;2023-06-26T04:42:22;9.07;;;8.03;;
3337;SDS011;1682;49.286;10.788;2023-06-26T04:44:49;8.27;;;6.67;;
3337;SDS011;1682;49.286;10.788;2023-06-26T04:47:16;9.50;;;7.43;;
3337;SDS011;1682;49.286;10.788;2023-06-26T04:49:43;13.20;;;8.83;;
3337;SDS011;1682;49.286;10.788;2023-06-26T04:52:11;11.27;;;10.07;;
3337;SDS011;1682;49.286;10.788;2023-06-26T04:54:40;11.17;;;8.53;;
3337;SDS011;1682;49.286;10.788;2023-06-26T04:57:08;9.40;;;7.40;;
3337;SDS011;1682;49.286;10.788;2023-06-26T04:59:36;7.30;;;6.60;;
3337;SDS011;1682;49.286;10.788;2023-06-26T05:02:04;7.03;;;6.30;;
3337;SDS011;1682;49.286;10.788;2023-06-26T05:04:31;7.07;;;6.37;;
3337;SDS011;1682;49.286;10.788;2023-06-26T05:06:58;9.67;;;6.80;;
3337;SDS011;1682;49.286;10.788;2023-06-26T05:09:25;6.97;;;6.27;;
3337;SDS011;1682;49.286;10.788;2023-06-26T05:11:54;8.47;;;6.70;;
3337;SDS011;1682;49.286;10.788;2023-06-26T05:14:21;6.80;;;6.20;;
3337;SDS011;1682;49.286;10.788;2023-06-26T05:16:48;7.03;;;6.33;;
3337;SDS011;1682;49.286;10.788;2023-06-26T05:19:16;11.30;;;6.93;;
3337;SDS011;1682;49.286;10.788;2023-06-26T05:21:43;7.20;;;6.10;;
3337;SDS011;1682;49.286;10.788;2023-06-26T05:24:10;6.17;;;5.57;;
3337;SDS011;1682;49.286;10.788;2023-06-26T05:26:40;9.07;;;7.07;;
3337;SDS011;1682;49.286;10.788;2023-06-26T05:29:09;8.07;;;7.23;;
3337;SDS011;1682;49.286;10.788;2023-06-26T05:31:36;8.17;;;6.93;;
3337;SDS011;1682;49.286;10.788;2023-06-26T05:34:07;7.17;;;6.47;;
3337;SDS011;1682;49.286;10.788;2023-06-26T05:36:34;6.93;;;6.30;;
3337;SDS011;1682;49.286;10.788;2023-06-26T05:39:02;7.30;;;6.50;;
3337;SDS011;1682;49.286;10.788;2023-06-26T05:41:30;7.47;;;6.53;;
3337;SDS011;1682;49.286;10.788;2023-06-26T05:43:57;7.00;;;6.30;;
3337;SDS011;1682;49.286;10.788;2023-06-26T05:46:26;6.73;;;5.97;;
3337;SDS011;1682;49.286;10.788;2023-06-26T05:48:53;8.90;;;5.77;;
3337;SDS011;1682;49.286;10.788;2023-06-26T05:51:20;6.50;;;5.90;;
3337;SDS011;1682;49.286;10.788;2023-06-26T05:53:48;8.60;;;6.10;;
3337;SDS011;1682;49.286;10.788;2023-06-26T05:56:16;7.77;;;7.03;;
3337;SDS011;1682;49.286;10.788;2023-06-26T05:58:43;6.60;;;6.00;;
3337;SDS011;1682;49.286;10.788;2023-06-26T06:01:11;6.67;;;6.07;;
3337;SDS011;1682;49.286;10.788;2023-06-26T06:03:39;7.13;;;6.53;;
3337;SDS011;1682;49.286;10.788;2023-06-26T06:06:07;7.10;;;6.40;;
3337;SDS011;1682;49.286;10.788;2023-06-26T06:08:34;7.23;;;6.57;;
3337;SDS011;1682;49.286;10.788;2023-06-26T06:11:01;6.67;;;6.07;;
3337;SDS011;1682;49.286;10.788;2023-06-26T06:13:28;7.27;;;6.57;;
3337;SDS011;1682;49.286;10.788;2023-06-26T06:15:56;7.10;;;6.40;;
3337;SDS011;1682;49.286;10.788;2023-06-26T06:18:23;9.77;;;7.23;;
3337;SDS011;1682;49.286;10.788;2023-06-26T06:20:51;7.40;;;6.60;;
3337;SDS011;1682;49.286;10.788;2023-06-26T06:23:18;6.77;;;6.10;;
3337;SDS011;1682;49.286;10.788;2023-06-26T06:25:46;9.50;;;6.67;;
3337;SDS011;1682;49.286;10.788;2023-06-26T06:28:13;6.43;;;5.83;;
3337;SDS011;1682;49.286;10.788;2023-06-26T06:30:41;6.57;;;5.93;;
3337;SDS011;1682;49.286;10.788;2023-06-26T06:33:08;7.10;;;6.40;;
3337;SDS011;1682;49.286;10.788;2023-06-26T06:35:36;6.50;;;5.87;;
3337;SDS011;1682;49.286;10.788;2023-06-26T06:38:04;7.63;;;6.30;;
3337;SDS011;1682;49.286;10.788;2023-06-26T06:40:32;7.23;;;6.30;;
3337;SDS011;1682;49.286;10.788;2023-06-26T06:42:59;6.10;;;5.50;;
3337;SDS011;1682;49.286;10.788;2023-06-26T06:45:26;7.00;;;6.27;;
3337;SDS011;1682;49.286;10.788;2023-06-26T06:47:53;6.67;;;6.07;;
3337;SDS011;1682;49.286;10.788;2023-06-26T06:50:21;8.63;;;6.77;;
3337;SDS011;1682;49.286;10.788;2023-06-26T06:52:48;6.63;;;6.00;;
3337;SDS011;1682;49.286;10.788;2023-06-26T06:55:16;6.77;;;6.07;;
3337;SDS011;1682;49.286;10.788;2023-06-26T06:57:44;7.60;;;6.37;;
3337;SDS011;1682;49.286;10.788;2023-06-26T07:00:12;6.77;;;5.63;;
3337;SDS011;1682;49.286;10.788;2023-06-26T07:02:41;6.77;;;6.07;;
3337;SDS011;1682;49.286;10.788;2023-06-26T07:05:09;8.80;;;6.77;;
3337;SDS011;1682;49.286;10.788;2023-06-26T07:07:36;6.30;;;5.80;;
3337;SDS011;1682;49.286;10.788;2023-06-26T07:10:04;6.20;;;5.60;;
3337;SDS011;1682;49.286;10.788;2023-06-26T07:12:34;8.47;;;6.37;;
3337;SDS011;1682;49.286;10.788;2023-06-26T07:15:01;7.70;;;5.50;;
3337;SDS011;1682;49.286;10.788;2023-06-26T07:17:29;6.00;;;5.30;;
3337;SDS011;1682;49.286;10.788;2023-06-26T07:19:56;6.20;;;5.47;;
3337;SDS011;1682;49.286;10.788;2023-06-26T07:22:42;7.17;;;5.60;;
3337;SDS011;1682;49.286;10.788;2023-06-26T07:25:31;7.00;;;5.97;;
3337;SDS011;1682;49.286;10.788;2023-06-26T07:28:20;7.00;;;6.30;;
3337;SDS011;1682;49.286;10.788;2023-06-26T07:31:07;6.77;;;6.17;;
3337;SDS011;1682;49.286;10.788;2023-06-26T07:33:55;7.47;;;6.77;;
3337;SDS011;1682;49.286;10.788;2023-06-26T07:36:42;7.37;;;5.60;;
3337;SDS011;1682;49.286;10.788;2023-06-26T07:39:30;7.40;;;6.20;;
3337;SDS011;1682;49.286;10.788;2023-06-26T07:42:18;6.20;;;5.60;;
3337;SDS011;1682;49.286;10.788;2023-06-26T07:45:07;8.67;;;6.30;;
3337;SDS011;1682;49.286;10.788;2023-06-26T07:47:37;7.10;;;5.90;;
3337;SDS011;1682;49.286;10.788;2023-06-26T07:50:04;6.20;;;5.70;;
3337;SDS011;1682;49.286;10.788;2023-06-26T07:52:32;6.67;;;6.07;;
3337;SDS011;1682;49.286;10.788;2023-06-26T07:54:59;7.70;;;6.60;;
3337;SDS011;1682;49.286;10.788;2023-06-26T07:57:26;8.37;;;6.60;;
3337;SDS011;1682;49.286;10.788;2023-06-26T07:59:53;6.60;;;6.00;;
3337;SDS011;1682;49.286;10.788;2023-06-26T08:02:22;7.23;;;6.53;;
3337;SDS011;1682;49.286;10.788;2023-06-26T08:04:49;8.00;;;6.50;;
3337;SDS011;1682;49.286;10.788;2023-06-26T08:07:16;8.43;;;6.50;;
3337;SDS011;1682;49.286;10.788;2023-06-26T08:09:44;6.90;;;6.30;;
3337;SDS011;1682;49.286;10.788;2023-06-26T08:12:11;6.43;;;5.80;;
3337;SDS011;1682;49.286;10.788;2023-06-26T08:14:38;7.30;;;6.60;;
3337;SDS011;1682;49.286;10.788;2023-06-26T08:17:06;9.43;;;6.67;;
3337;SDS011;1682;49.286;10.788;2023-06-26T08:19:34;7.63;;;6.57;;
3337;SDS011;1682;49.286;10.788;2023-06-26T08:22:01;6.43;;;5.77;;
3337;SDS011;1682;49.286;10.788;2023-06-26T08:24:28;7.87;;;6.63;;
3337;SDS011;1682;49.286;10.788;2023-06-26T08:26:56;6.03;;;5.43;;
3337;SDS011;1682;49.286;10.788;2023-06-26T08:29:24;8.30;;;6.40;;
3337;SDS011;1682;49.286;10.788;2023-06-26T08:31:51;7.50;;;6.30;;
3337;SDS011;1682;49.286;10.788;2023-06-26T08:34:18;7.00;;;6.30;;
3337;SDS011;1682;49.286;10.788;2023-06-26T08:36:47;6.50;;;5.80;;
3337;SDS011;1682;49.286;10.788;2023-06-26T08:39:14;6.90;;;5.90;;
3337;SDS011;1682;49.286;10.788;2023-06-26T08:41:41;6.30;;;5.70;;
3337;SDS011;1682;49.286;10.788;2023-06-26T08:44:08;6.40;;;5.80;;
3337;SDS011;1682;49.286;10.788;2023-06-26T08:46:36;7.53;;;6.73;;
3337;SDS011;1682;49.286;10.788;2023-06-26T08:49:04;6.20;;;5.60;;
3337;SDS011;1682;49.286;10.788;2023-06-26T08:51:35;6.90;;;6.30;;
3337;SDS011;1682;49.286;10.788;2023-06-26T08:54:06;6.50;;;5.90;;
3337;SDS011;1682;49.286;10.788;2023-06-26T08:56:36;8.20;;;6.87;;
3337;SDS011;1682;49.286;10.788;2023-06-26T08:59:04;7.20;;;6.50;;
3337;SDS011;1682;49.286;10.788;2023-06-26T09:01:32;7.60;;;6.90;;
3337;SDS011;1682;49.286;10.788;2023-06-26T09:03:59;6.13;;;5.60;;
3337;SDS011;1682;49.286;10.788;2023-06-26T09:06:26;7.47;;;6.13;;
3337;SDS011;1682;49.286;10.788;2023-06-26T09:08:53;8.10;;;6.07;;
3337;SDS011;1682;49.286;10.788;2023-06-26T09:11:23;5.77;;;5.27;;
3337;SDS011;1682;49.286;10.788;2023-06-26T09:13:50;7.23;;;6.43;;
3337;SDS011;1682;49.286;10.788;2023-06-26T09:16:23;7.57;;;6.70;;
3337;SDS011;1682;49.286;10.788;2023-06-26T09:18:52;6.57;;;5.83;;
3337;SDS011;1682;49.286;10.788;2023-06-26T09:21:19;7.40;;;6.03;;
3337;SDS011;1682;49.286;10.788;2023-06-26T09:23:46;6.97;;;6.37;;
3337;SDS011;1682;49.286;10.788;2023-06-26T09:26:13;6.77;;;6.07;;
3337;SDS011;1682;49.286;10.788;2023-06-26T09:28:43;7.53;;;6.90;;
3337;SDS011;1682;49.286;10.788;2023-06-26T09:31:10;5.90;;;5.40;;
3337;SDS011;1682;49.286;10.788;2023-06-26T09:33:37;5.83;;;5.43;;
3337;SDS011;1682;49.286;10.788;2023-06-26T09:36:07;6.10;;;5.50;;
3337;SDS011;1682;49.286;10.788;2023-06-26T09:38:35;6.40;;;5.80;;
3337;SDS011;1682;49.286;10.788;2023-06-26T09:41:03;5.33;;;4.83;;
3337;SDS011;1682;49.286;10.788;2023-06-26T09:43:30;5.10;;;4.70;;
3337;SDS011;1682;49.286;10.788;2023-06-26T09:45:59;5.47;;;4.97;;
3337;SDS011;1682;49.286;10.788;2023-06-26T09:48:27;8.00;;;6.00;;
3337;SDS011;1682;49.286;10.788;2023-06-26T09:50:55;6.50;;;5.10;;
3337;SDS011;1682;49.286;10.788;2023-06-26T09:53:22;5.40;;;4.90;;
3337;SDS011;1682;49.286;10.788;2023-06-26T09:55:49;6.50;;;5.80;;
3337;SDS011;1682;49.286;10.788;2023-06-26T09:58:16;5.70;;;5.17;;
3337;SDS011;1682;49.286;10.788;2023-06-26T10:00:44;6.67;;;5.63;;
3337;SDS011;1682;49.286;10.788;2023-06-26T10:03:12;6.00;;;5.40;;
3337;SDS011;1682;49.286;10.788;2023-06-26T10:05:40;6.40;;;5.90;;
3337;SDS011;1682;49.286;10.788;2023-06-26T10:08:08;5.87;;;4.70;;
3337;SDS011;1682;49.286;10.788;2023-06-26T10:10:36;8.30;;;4.83;;
3337;SDS011;1682;49.286;10.788;2023-06-26T10:13:04;5.50;;;5.00;;
3337;SDS011;1682;49.286;10.788;2023-06-26T10:15:32;6.70;;;6.03;;
3337;SDS011;1682;49.286;10.788;2023-06-26T10:18:00;5.60;;;5.10;;
3337;SDS011;1682;49.286;10.788;2023-06-26T10:20:29;5.70;;;4.90;;
3337;SDS011;1682;49.286;10.788;2023-06-26T10:22:57;12.80;;;7.80;;
3337;SDS011;1682;49.286;10.788;2023-06-26T10:25:27;4.70;;;4.30;;
3337;SDS011;1682;49.286;10.788;2023-06-26T10:27:57;4.80;;;4.40;;
3337;SDS011;1682;49.286;10.788;2023-06-26T10:30:26;4.90;;;4.50;;
3337;SDS011;1682;49.286;10.788;2023-06-26T10:32:54;7.07;;;6.47;;
3337;SDS011;1682;49.286;10.788;2023-06-26T10:35:23;5.03;;;4.63;;
3337;SDS011;1682;49.286;10.788;2023-06-26T10:37:52;6.83;;;5.20;;
3337;SDS011;1682;49.286;10.788;2023-06-26T10:40:27;5.03;;;4.63;;
3337;SDS011;1682;49.286;10.788;2023-06-26T10:43:05;4.30;;;3.93;;
3337;SDS011;1682;49.286;10.788;2023-06-26T10:45:33;4.10;;;3.87;;
3337;SDS011;1682;49.286;10.788;2023-06-26T10:48:00;4.47;;;4.07;;
3337;SDS011;1682;49.286;10.788;2023-06-26T10:50:29;5.60;;;4.00;;
3337;SDS011;1682;49.286;10.788;2023-06-26T10:53:15;5.23;;;4.83;;
3337;SDS011;1682;49.286;10.788;2023-06-26T10:55:49;4.70;;;4.30;;
3337;SDS011;1682;49.286;10.788;2023-06-26T10:58:26;5.20;;;4.70;;
3337;SDS011;1682;49.286;10.788;2023-06-26T11:03:36;4.43;;;4.03;;
3337;SDS011;1682;49.286;10.788;2023-06-26T11:06:10;4.50;;;3.87;;
3337;SDS011;1682;49.286;10.788;2023-06-26T11:08:45;5.90;;;3.97;;
3337;SDS011;1682;49.286;10.788;2023-06-26T11:11:12;4.20;;;3.90;;
3337;SDS011;1682;49.286;10.788;2023-06-26T11:13:40;3.83;;;3.57;;
3337;SDS011;1682;49.286;10.788;2023-06-26T11:16:07;4.13;;;3.83;;
3337;SDS011;1682;49.286;10.788;2023-06-26T11:18:35;4.20;;;3.90;;
3337;SDS011;1682;49.286;10.788;2023-06-26T11:21:06;3.63;;;3.43;;
3337;SDS011;1682;49.286;10.788;2023-06-26T11:23:35;5.80;;;4.80;;
3337;SDS011;1682;49.286;10.788;2023-06-26T11:28:54;4.27;;;3.97;;
3337;SDS011;1682;49.286;10.788;2023-06-26T11:31:25;4.07;;;3.77;;
3337;SDS011;1682;49.286;10.788;2023-06-26T11:33:52;4.40;;;4.00;;
3337;SDS011;1682;49.286;10.788;2023-06-26T11:36:22;4.00;;;3.67;;
3337;SDS011;1682;49.286;10.788;2023-06-26T11:38:54;4.57;;;4.10;;
3337;SDS011;1682;49.286;10.788;2023-06-26T11:41:22;8.20;;;5.07;;
3337;SDS011;1682;49.286;10.788;2023-06-26T11:43:50;3.73;;;3.53;;
3337;SDS011;1682;49.286;10.788;2023-06-26T11:46:19;4.20;;;3.90;;
3337;SDS011;1682;49.286;10.788;2023-06-26T11:48:47;4.77;;;4.37;;
3337;SDS011;1682;49.286;10.788;2023-06-26T11:51:14;4.60;;;4.20;;
3337;SDS011;1682;49.286;10.788;2023-06-26T11:53:42;3.78;;;3.47;;
3337;SDS011;1682;49.286;10.788;2023-06-26T11:56:10;4.53;;;4.22;;
3337;SDS011;1682;49.286;10.788;2023-06-26T12:01:21;3.90;;;3.70;;
3337;SDS011;1682;49.286;10.788;2023-06-26T12:03:48;3.45;;;3.25;;
3337;SDS011;1682;49.286;10.788;2023-06-26T12:06:16;3.70;;;3.13;;
3337;SDS011;1682;49.286;10.788;2023-06-26T12:08:43;3.83;;;3.63;;
3337;SDS011;1682;49.286;10.788;2023-06-26T12:11:12;3.67;;;3.47;;
3337;SDS011;1682;49.286;10.788;2023-06-26T12:13:39;3.92;;;3.70;;
3337;SDS011;1682;49.286;10.788;2023-06-26T12:16:07;4.28;;;3.88;;
3337;SDS011;1682;49.286;10.788;2023-06-26T12:18:35;3.78;;;3.45;;
3337;SDS011;1682;49.286;10.788;2023-06-26T12:21:03;3.92;;;3.72;;
3337;SDS011;1682;49.286;10.788;2023-06-26T12:23:35;3.88;;;3.58;;
3337;SDS011;1682;49.286;10.788;2023-06-26T12:28:48;3.90;;;3.70;;
3337;SDS011;1682;49.286;10.788;2023-06-26T12:31:16;3.88;;;3.67;;
3337;SDS011;1682;49.286;10.788;2023-06-26T12:33:44;3.72;;;3.45;;
3337;SDS011;1682;49.286;10.788;2023-06-26T12:36:11;4.20;;;4.00;;
3337;SDS011;1682;49.286;10.788;2023-06-26T12:38:39;3.97;;;3.78;;
3337;SDS011;1682;49.286;10.788;2023-06-26T12:41:11;5.25;;;4.10;;
3337;SDS011;1682;49.286;10.788;2023-06-26T12:43:39;3.95;;;3.75;;
3337;SDS011;1682;49.286;10.788;2023-06-26T12:46:06;3.38;;;3.17;;
3337;SDS011;1682;49.286;10.788;2023-06-26T12:48:37;3.92;;;3.72;;
3337;SDS011;1682;49.286;10.788;2023-06-26T12:51:10;4.50;;;4.20;;
3337;SDS011;1682;49.286;10.788;2023-06-26T12:53:37;3.50;;;3.30;;
3337;SDS011;1682;49.286;10.788;2023-06-26T12:56:05;4.15;;;3.95;;
3337;SDS011;1682;49.286;10.788;2023-06-26T12:58:33;4.07;;;3.88;;
3337;SDS011;1682;49.286;10.788;2023-06-26T13:01:02;3.85;;;3.55;;
3337;SDS011;1682;49.286;10.788;2023-06-26T13:03:30;3.92;;;3.72;;
3337;SDS011;1682;49.286;10.788;2023-06-26T13:05:57;4.45;;;4.05;;
3337;SDS011;1682;49.286;10.788;2023-06-26T13:08:25;4.95;;;4.65;;
3337;SDS011;1682;49.286;10.788;2023-06-26T13:10:54;4.40;;;4.10;;
3337;SDS011;1682;49.286;10.788;2023-06-26T13:13:21;5.32;;;4.93;;
3337;SDS011;1682;49.286;10.788;2023-06-26T13:15:48;5.35;;;4.95;;
3337;SDS011;1682;49.286;10.788;2023-06-26T13:18:16;5.15;;;4.75;;
3337;SDS011;1682;49.286;10.788;2023-06-26T13:20:43;5.13;;;4.72;;
3337;SDS011;1682;49.286;10.788;2023-06-26T13:23:11;4.38;;;3.97;;
3337;SDS011;1682;49.286;10.788;2023-06-26T13:25:41;5.28;;;4.97;;
3337;SDS011;1682;49.286;10.788;2023-06-26T13:28:08;4.57;;;4.28;;
3337;SDS011;1682;49.286;10.788;2023-06-26T13:30:35;5.38;;;4.88;;
3337;SDS011;1682;49.286;10.788;2023-06-26T13:33:03;5.00;;;4.47;;
3337;SDS011;1682;49.286;10.788;2023-06-26T13:35:30;5.30;;;4.80;;
3337;SDS011;1682;49.286;10.788;2023-06-26T13:37:57;6.38;;;5.80;;
3337;SDS011;1682;49.286;10.788;2023-06-26T13:40:24;4.20;;;3.80;;
3337;SDS011;1682;49.286;10.788;2023-06-26T13:42:53;5.10;;;4.70;;
3337;SDS011;1682;49.286;10.788;2023-06-26T13:45:20;5.30;;;4.97;;
3337;SDS011;1682;49.286;10.788;2023-06-26T13:47:47;5.05;;;4.70;;
3337;SDS011;1682;49.286;10.788;2023-06-26T13:50:15;3.67;;;3.47;;
3337;SDS011;1682;49.286;10.788;2023-06-26T13:52:42;4.68;;;4.28;;
3337;SDS011;1682;49.286;10.788;2023-06-26T13:55:10;4.68;;;4.30;;
3337;SDS011;1682;49.286;10.788;2023-06-26T13:57:37;4.45;;;4.25;;
3337;SDS011;1682;49.286;10.788;2023-06-26T14:00:08;5.07;;;4.68;;
3337;SDS011;1682;49.286;10.788;2023-06-26T14:02:37;6.80;;;3.92;;
3337;SDS011;1682;49.286;10.788;2023-06-26T14:05:04;4.53;;;4.18;;
3337;SDS011;1682;49.286;10.788;2023-06-26T14:07:32;4.93;;;4.63;;
3337;SDS011;1682;49.286;10.788;2023-06-26T14:09:59;5.28;;;4.85;;
3337;SDS011;1682;49.286;10.788;2023-06-26T14:12:26;4.50;;;4.20;;
3337;SDS011;1682;49.286;10.788;2023-06-26T14:14:53;4.45;;;4.15;;
3337;SDS011;1682;49.286;10.788;2023-06-26T14:17:22;5.28;;;4.97;;
3337;SDS011;1682;49.286;10.788;2023-06-26T14:19:51;4.70;;;4.40;;
3337;SDS011;1682;49.286;10.788;2023-06-26T14:22:18;4.68;;;4.38;;
3337;SDS011;1682;49.286;10.788;2023-06-26T14:24:46;5.10;;;4.70;;
3337;SDS011;1682;49.286;10.788;2023-06-26T14:27:13;5.30;;;5.00;;
3337;SDS011;1682;49.286;10.788;2023-06-26T14:29:40;5.15;;;4.65;;
3337;SDS011;1682;49.286;10.788;2023-06-26T14:32:07;4.75;;;4.45;;
3337;SDS011;1682;49.286;10.788;2023-06-26T14:34:36;5.28;;;4.78;;
3337;SDS011;1682;49.286;10.788;2023-06-26T14:37:03;5.20;;;4.80;;
3337;SDS011;1682;49.286;10.788;2023-06-26T14:39:31;5.32;;;4.90;;
3337;SDS011;1682;49.286;10.788;2023-06-26T14:41:58;6.88;;;5.20;;
3337;SDS011;1682;49.286;10.788;2023-06-26T14:44:25;5.40;;;5.10;;
3337;SDS011;1682;49.286;10.788;2023-06-26T14:46:52;5.72;;;5.22;;
3337;SDS011;1682;49.286;10.788;2023-06-26T14:49:19;4.60;;;4.25;;
3337;SDS011;1682;49.286;10.788;2023-06-26T14:51:48;4.85;;;4.55;;
3337;SDS011;1682;49.286;10.788;2023-06-26T14:54:15;4.70;;;4.22;;
3337;SDS011;1682;49.286;10.788;2023-06-26T14:56:42;5.70;;;5.15;;
3337;SDS011;1682;49.286;10.788;2023-06-26T14:59:10;5.93;;;5.38;;
3337;SDS011;1682;49.286;10.788;2023-06-26T15:01:38;6.85;;;5.93;;
3337;SDS011;1682;49.286;10.788;2023-06-26T15:04:05;5.88;;;5.35;;
3337;SDS011;1682;49.286;10.788;2023-06-26T15:06:33;5.63;;;5.15;;
3337;SDS011;1682;49.286;10.788;2023-06-26T15:09:02;5.60;;;5.18;;
3337;SDS011;1682;49.286;10.788;2023-06-26T15:11:30;5.65;;;5.35;;
3337;SDS011;1682;49.286;10.788;2023-06-26T15:13:58;5.40;;;5.03;;
3337;SDS011;1682;49.286;10.788;2023-06-26T15:16:25;5.53;;;5.13;;
3337;SDS011;1682;49.286;10.788;2023-06-26T15:18:52;7.32;;;6.63;;
3337;SDS011;1682;49.286;10.788;2023-06-26T15:21:19;4.80;;;4.50;;